Aérodrome :
LOGIN :

S'inscrire | Disclaimer

   EN    FR    IT 

 










Légende :    VFR   VFR Marginal   IFR   IFR Intensif   IFR Très Intensif
Visi : 
Plafond : 
>= 8 km
>= 3000ft
5 à 8 km
1000 à 3000 ft
1500m à 5 km
500 à 1000 ft
800 à 1500m
200 à 500 ft
< 800m
< 200 ft
Symboles :   Orages  Brouillard  Fortes neiges  Fortes précipitations  Vent > 20 kt
SIGMETs :   Divers  Orages  Givrage  Turbulence  Onde Orograph.  Cendres Volcan.







- Altitude de l'aérodrome : 82 ft
- Code IATA : QIE
- Voir les cartes d'approche


LFMI - Istres

DERNIER METAR :
  • 231830Z AUTO 34017KT CAVOK 17/06 Q1021 BECMG 36020G30KT

METARs EXPIRÉS :
  • 231800Z AUTO 34015KT CAVOK 17/06 Q1021 NOSIG
  • 231730Z AUTO 34017KT CAVOK 17/06 Q1021 NOSIG
  • 231700Z AUTO 34019KT CAVOK 17/06 Q1021 NOSIG
  • 231630Z AUTO 34013KT CAVOK 17/06 Q1021 NOSIG

TAF TAF LFMI
Valide du 23 à 15h jusqu'au 24 à 15h UTC


231400Z 2315/2415 34015KT CAVOK
BECMG 2320/2323 36020G30KT
BECMG 2401/2403 36025G40KT
Pas de NOTAMs connus pour ce terrain.
4 SIGMETs publiés pour la FIR Marseille (LFMM) :
 
Annulation du SIGMET 3 
LFMM SIGMET 4 VALID 231610/240100 LFPW
LFMM MARSEILLE FIR/UIR CNL SIGMET 3 231900/240100=
SIGMET 3  ANNULÉ :
Cendres volcaniques
LFMM SIGMET 3 VALID 231900/240100 LFPW
LFMM MARSEILLE FIR/UIR EXERCISE VOLCITA 2018 EXERCISE VA ERUPTION MT CAMPI LOC N4049 E01408 VA CLD FCST AT 2100Z S OF LINE N3900 E00530 - N4000 E00800 FL100/400 STNR EXERCISE EXERCISE EXERCISE=
Annulation du SIGMET 1 
LFMM SIGMET 2 VALID 231535/240100 LFPW
LFMM MARSEILLE FIR/UIR CNL SIGMET 1 231900/240100=
SIGMET 1  ANNULÉ :
Cendres volcaniques
LFMM SIGMET 1 VALID 231900/240100 LFPW
LFMM MARSEILLE FIR/UIR EXERCICE VOLCITA 2018 EXERCICE VA ERUPTION MT CAMPI FLEGREI LOC N4049 E01408 VA CLD FCST S OF LINE N3900 E00530 - N4000 E00800 FL100/400 EXERCICE EXERCICE EXERCICE=



MET'MAP, la Météo Aéronautique d'un coup d'oeil ! - Copyright ORBIFLY Décembre 2007 - Disclaimer

ORBIFLY MET'MAP TEAM :

Programmation & Développement : Alexandra Zaïnal
Conception & Développement : Baudouin d'Aumeries
Co-Programmation & Développement : Marc-Olivier Méhu
Soutien technique & logistique : Manuel Goepfert

Contact : metmap@orbifly.com




SOURCES & CREDITS :

   NOAA